North Avondale, Colorado
Current Conditions -  °F | °C
As of 1:53 PM on Saturday 20 Dec 2014 (Local Time) from KPUB Reporting Station
Clear Clear  
Wind Chill: 55°   Ceiling: Unl
Heat Index: 55°   Visibility: 10mi
Dew Point: 18°   Wind: 9mph
Humidity: 23%   Direction: 120°ESE
Pressure: 29.91"   Gusts: NA
Location:  38.0104°N, 104.392°W
Report Text: KPUB 202053Z 12008KT 10SM CLR 13/M08 A2991 RMK AO2 SLP129 T01281078 56030
Loading
Personal Weather Stations






























Interactive Weather Map New forecast layout! Learn more

10-Day Weather Forecast

Advertisements
Track Severe Weather on mobile